createdAt,value
2017-08-13T00:00:05.918Z,0
2017-08-13T00:01:05.895Z,0
2017-08-13T00:02:06.167Z,0
2017-08-13T00:03:05.853Z,0
2017-08-13T00:04:05.842Z,0
2017-08-13T00:05:05.811Z,0
2017-08-13T00:06:05.800Z,0
2017-08-13T00:07:05.781Z,0
2017-08-13T00:08:06.044Z,0
2017-08-13T00:09:06.027Z,0
2017-08-13T00:10:06.010Z,0
2017-08-13T00:11:05.980Z,0
2017-08-13T00:12:05.670Z,0
2017-08-13T00:13:05.639Z,0
2017-08-13T00:14:05.918Z,0
2017-08-13T00:15:05.893Z,0
2017-08-13T00:16:05.873Z,0
2017-08-13T00:17:05.872Z,0
2017-08-13T00:18:05.830Z,0
2017-08-13T00:19:05.810Z,0
2017-08-13T00:20:05.493Z,0
2017-08-13T00:21:05.771Z,0
2017-08-13T00:22:05.742Z,0
2017-08-13T00:23:05.431Z,0
2017-08-13T00:24:05.703Z,0
2017-08-13T00:25:05.391Z,0
2017-08-13T00:26:05.664Z,0
2017-08-13T00:27:05.350Z,0
2017-08-13T00:28:05.647Z,0
2017-08-13T00:29:05.307Z,0
2017-08-13T00:30:05.281Z,0
2017-08-13T00:31:05.560Z,0
2017-08-13T00:32:05.531Z,0
2017-08-13T00:33:05.517Z,0
2017-08-13T00:34:05.495Z,0
2017-08-13T00:35:05.476Z,0
2017-08-13T00:36:05.455Z,0
2017-08-13T00:37:05.131Z,0
2017-08-13T00:38:05.411Z,0
2017-08-13T00:39:05.392Z,0
2017-08-13T00:40:05.370Z,0
2017-08-13T00:41:05.364Z,0
2017-08-13T00:42:05.319Z,0
2017-08-13T00:43:05.300Z,0
2017-08-13T00:44:05.279Z,0
2017-08-13T00:45:05.262Z,0
2017-08-13T00:46:05.235Z,0
2017-08-13T00:47:05.223Z,0
2017-08-13T00:48:04.897Z,0
2017-08-13T00:49:05.179Z,0
2017-08-13T00:50:04.861Z,0
2017-08-13T00:51:05.133Z,0
2017-08-13T00:52:05.127Z,0
2017-08-13T00:53:05.093Z,0
2017-08-13T00:54:05.069Z,0
2017-08-13T00:55:05.045Z,0
2017-08-13T00:56:05.028Z,0
2017-08-13T00:57:05.005Z,0
2017-08-13T00:58:05.005Z,0
2017-08-13T00:59:04.667Z,0
2017-08-13T01:00:04.940Z,0
2017-08-13T01:01:04.917Z,0
2017-08-13T01:02:04.910Z,0
2017-08-13T01:03:04.584Z,0
2017-08-13T01:04:04.854Z,0
2017-08-13T01:05:04.835Z,0
2017-08-13T01:06:04.814Z,0
2017-08-13T01:07:04.492Z,0
2017-08-13T01:08:04.776Z,0
2017-08-13T01:09:04.749Z,0
2017-08-13T01:10:04.725Z,0
2017-08-13T01:11:04.717Z,0
2017-08-13T01:12:04.683Z,0
2017-08-13T01:13:04.677Z,0
2017-08-13T01:14:04.639Z,0
2017-08-13T01:15:04.634Z,0
2017-08-13T01:16:04.611Z,0
2017-08-13T01:17:04.583Z,0
2017-08-13T01:18:04.555Z,0
2017-08-13T01:19:04.544Z,0
2017-08-13T01:20:04.519Z,0
2017-08-13T01:21:04.498Z,0
2017-08-13T01:22:04.508Z,0
2017-08-13T01:23:04.448Z,0
2017-08-13T01:24:04.432Z,0
2017-08-13T01:25:04.411Z,0
2017-08-13T01:26:04.384Z,0
2017-08-13T01:27:04.372Z,0
2017-08-13T01:28:04.350Z,0
2017-08-13T01:29:04.318Z,0
2017-08-13T01:30:04.005Z,0
2017-08-13T01:31:04.279Z,0
2017-08-13T01:32:03.971Z,0
2017-08-13T01:33:04.238Z,0
2017-08-13T01:34:04.214Z,0
2017-08-13T01:35:03.900Z,0
2017-08-13T01:36:03.878Z,0
2017-08-13T01:37:04.156Z,0
2017-08-13T01:38:04.133Z,0
2017-08-13T01:39:04.113Z,0
2017-08-13T01:40:04.088Z,0
2017-08-13T01:41:04.067Z,0
2017-08-13T01:42:04.052Z,0
2017-08-13T01:43:04.030Z,0
2017-08-13T01:44:04.012Z,0
2017-08-13T01:45:03.979Z,0
2017-08-13T01:46:03.957Z,0
2017-08-13T01:47:03.649Z,0
2017-08-13T01:48:03.917Z,0
2017-08-13T01:49:03.896Z,0
2017-08-13T01:50:03.875Z,0
2017-08-13T01:51:03.868Z,0
2017-08-13T01:52:03.539Z,0
2017-08-13T01:53:03.818Z,0
2017-08-13T01:54:03.786Z,0
2017-08-13T01:55:03.791Z,0
2017-08-13T01:56:03.745Z,0
2017-08-13T01:57:03.738Z,0
2017-08-13T01:58:03.708Z,0
2017-08-13T01:59:03.686Z,0
2017-08-13T02:00:03.660Z,0
2017-08-13T02:01:03.646Z,0
2017-08-13T02:02:03.627Z,0
2017-08-13T02:03:03.595Z,0
2017-08-13T02:04:03.579Z,0
2017-08-13T02:05:03.559Z,0
2017-08-13T02:06:03.241Z,0
2017-08-13T02:07:03.512Z,0
2017-08-13T02:08:03.487Z,0
2017-08-13T02:09:03.471Z,0
2017-08-13T02:10:03.446Z,0
2017-08-13T02:11:03.427Z,0
2017-08-13T02:12:03.402Z,0
2017-08-13T02:13:03.419Z,0
2017-08-13T02:14:03.361Z,0
2017-08-13T02:15:03.346Z,0
2017-08-13T02:16:03.322Z,0
2017-08-13T02:17:02.707Z,0
2017-08-13T02:18:03.285Z,0
2017-08-13T02:19:03.262Z,0
2017-08-13T02:20:02.946Z,0
2017-08-13T02:21:03.218Z,0
2017-08-13T02:22:03.194Z,0
2017-08-13T02:23:03.174Z,0
2017-08-13T02:24:03.159Z,0
2017-08-13T02:25:03.129Z,0
2017-08-13T02:26:02.813Z,0
2017-08-13T02:27:03.090Z,0
2017-08-13T02:28:03.068Z,0
2017-08-13T02:29:03.043Z,0
2017-08-13T02:30:03.024Z,0
2017-08-13T02:31:03.006Z,0
2017-08-13T02:32:02.682Z,0
2017-08-13T02:33:02.660Z,0
2017-08-13T02:34:02.947Z,0
2017-08-13T02:35:02.620Z,0
2017-08-13T02:36:02.890Z,0
2017-08-13T02:37:02.590Z,0
2017-08-13T02:38:02.561Z,0
2017-08-13T02:39:02.239Z,0
2017-08-13T02:40:02.809Z,0
2017-08-13T02:41:02.493Z,0
2017-08-13T02:42:02.764Z,0
2017-08-13T02:43:02.747Z,0
2017-08-13T02:44:02.770Z,0
2017-08-13T02:45:02.699Z,0
2017-08-13T02:46:02.385Z,0
2017-08-13T02:47:02.676Z,0
2017-08-13T02:48:02.635Z,0
2017-08-13T02:49:02.315Z,0
2017-08-13T02:50:02.593Z,0
2017-08-13T02:51:02.575Z,0
2017-08-13T02:52:02.568Z,0
2017-08-13T02:53:02.536Z,0
2017-08-13T02:54:02.514Z,0
2017-08-13T02:55:02.485Z,0
2017-08-13T02:56:02.472Z,0
2017-08-13T02:57:02.439Z,0
2017-08-13T02:58:02.132Z,0
2017-08-13T02:59:02.402Z,0
2017-08-13T03:00:02.382Z,0
2017-08-13T03:01:02.362Z,0
2017-08-13T03:02:02.335Z,0
2017-08-13T03:03:02.318Z,0
2017-08-13T03:04:02.294Z,0
2017-08-13T03:05:02.319Z,0
2017-08-13T03:06:02.300Z,0
2017-08-13T03:07:02.264Z,0
2017-08-13T03:08:01.985Z,0
2017-08-13T03:09:01.911Z,0
2017-08-13T03:10:01.924Z,0
2017-08-13T03:11:02.164Z,0
2017-08-13T03:12:02.513Z,0
2017-08-13T03:13:01.802Z,0
2017-08-13T03:14:02.075Z,0
2017-08-13T03:15:02.052Z,0
2017-08-13T03:16:02.038Z,0
2017-08-13T03:17:02.018Z,0
2017-08-13T03:18:01.994Z,0
2017-08-13T03:19:01.967Z,0
2017-08-13T03:20:01.952Z,0
2017-08-13T03:21:01.927Z,0
2017-08-13T03:22:01.903Z,0
2017-08-13T03:23:01.585Z,0
2017-08-13T03:24:01.570Z,0
2017-08-13T03:25:01.553Z,0
2017-08-13T03:26:01.816Z,0
2017-08-13T03:27:01.795Z,0
2017-08-13T03:28:01.774Z,0
2017-08-13T03:29:01.757Z,0
2017-08-13T03:30:01.733Z,0
2017-08-13T03:31:01.730Z,0
2017-08-13T03:32:01.702Z,0
2017-08-13T03:33:01.666Z,0
2017-08-13T03:34:01.643Z,0
2017-08-13T03:35:01.625Z,0
2017-08-13T03:36:01.356Z,0
2017-08-13T03:37:01.594Z,0
2017-08-13T03:38:01.564Z,0
2017-08-13T03:39:01.243Z,0
2017-08-13T03:40:01.218Z,0
2017-08-13T03:41:01.488Z,0
2017-08-13T03:42:01.485Z,0
2017-08-13T03:43:01.454Z,0
2017-08-13T03:44:01.427Z,0
2017-08-13T03:45:01.410Z,0
2017-08-13T03:46:01.397Z,0
2017-08-13T03:47:01.378Z,0
2017-08-13T03:48:01.352Z,0
2017-08-13T03:49:01.326Z,0
2017-08-13T03:50:01.301Z,0
2017-08-13T03:51:00.980Z,0
2017-08-13T03:52:01.257Z,0
2017-08-13T03:53:01.238Z,0
2017-08-13T03:54:01.210Z,0
2017-08-13T03:55:01.193Z,0
2017-08-13T03:56:01.170Z,0
2017-08-13T03:57:01.151Z,0
2017-08-13T03:58:01.123Z,0
2017-08-13T03:59:01.122Z,0
2017-08-13T04:00:01.077Z,0
2017-08-13T04:01:01.078Z,5
2017-08-13T04:02:01.042Z,5
2017-08-13T04:03:01.017Z,5
2017-08-13T04:04:00.994Z,5
2017-08-13T04:05:00.979Z,5
2017-08-13T04:06:00.948Z,5
2017-08-13T04:07:00.982Z,10
2017-08-13T04:08:00.911Z,10
2017-08-13T04:09:00.882Z,10
2017-08-13T04:10:00.857Z,10
2017-08-13T04:11:00.844Z,10
2017-08-13T04:12:00.523Z,15
2017-08-13T04:13:00.798Z,15
2017-08-13T04:14:00.779Z,15
2017-08-13T04:15:00.758Z,15
2017-08-13T04:16:00.740Z,20
2017-08-13T04:16:59.833Z,20
2017-08-13T04:18:00.412Z,20
2017-08-13T04:19:00.664Z,20
2017-08-13T04:20:00.652Z,25
2017-08-13T04:21:00.632Z,25
2017-08-13T04:22:00.614Z,30
2017-08-13T04:23:00.587Z,30
2017-08-13T04:24:00.562Z,35
2017-08-13T04:25:00.538Z,35
2017-08-13T04:26:00.522Z,35
2017-08-13T04:27:00.496Z,40
2017-08-13T04:28:00.471Z,40
2017-08-13T04:29:00.457Z,40
2017-08-13T04:30:00.430Z,40
2017-08-13T04:31:00.409Z,40
2017-08-13T04:32:00.386Z,45
2017-08-13T04:33:00.366Z,45
2017-08-13T04:34:00.342Z,45
2017-08-13T04:35:00.033Z,50
2017-08-13T04:36:00.297Z,50
2017-08-13T04:37:00.283Z,50
2017-08-13T04:37:59.961Z,50
2017-08-13T04:39:00.229Z,55
2017-08-13T04:40:00.223Z,60
2017-08-13T04:41:00.188Z,65
2017-08-13T04:42:00.173Z,70
2017-08-13T04:43:00.147Z,75
2017-08-13T04:44:00.126Z,75
2017-08-13T04:44:59.814Z,85
2017-08-13T04:46:00.084Z,85
2017-08-13T04:47:00.064Z,90
2017-08-13T04:48:00.043Z,95
2017-08-13T04:49:00.023Z,105
2017-08-13T04:50:00.004Z,105
2017-08-13T04:50:59.997Z,110
2017-08-13T04:51:59.954Z,110
2017-08-13T04:52:59.941Z,100
2017-08-13T04:53:59.923Z,95
2017-08-13T04:54:59.902Z,95
2017-08-13T04:55:59.871Z,95
2017-08-13T04:56:59.850Z,105
2017-08-13T04:57:59.828Z,120
2017-08-13T04:58:59.805Z,135
2017-08-13T04:59:59.781Z,150
2017-08-13T05:00:59.758Z,160
2017-08-13T05:01:59.742Z,165
2017-08-13T05:02:59.721Z,170
2017-08-13T05:03:59.704Z,165
2017-08-13T05:04:59.678Z,160
2017-08-13T05:05:59.657Z,160
2017-08-13T05:06:59.629Z,160
2017-08-13T05:07:59.615Z,170
2017-08-13T05:08:59.588Z,165
2017-08-13T05:09:59.571Z,160
2017-08-13T05:10:59.552Z,155
2017-08-13T05:11:59.235Z,155
2017-08-13T05:12:59.511Z,155
2017-08-13T05:13:59.180Z,155
2017-08-13T05:14:59.516Z,155
2017-08-13T05:15:59.432Z,160
2017-08-13T05:16:59.418Z,165
2017-08-13T05:17:59.398Z,180
2017-08-13T05:18:59.390Z,195
2017-08-13T05:19:59.059Z,210
2017-08-13T05:20:59.332Z,230
2017-08-13T05:21:59.316Z,245
2017-08-13T05:22:58.998Z,255
2017-08-13T05:23:59.276Z,250
2017-08-13T05:24:59.247Z,250
2017-08-13T05:25:59.228Z,250
2017-08-13T05:26:59.210Z,250
2017-08-13T05:27:59.192Z,250
2017-08-13T05:28:59.161Z,250
2017-08-13T05:29:59.143Z,250
2017-08-13T05:30:59.125Z,250
2017-08-13T05:31:59.136Z,245
2017-08-13T05:32:59.080Z,245
2017-08-13T05:33:59.052Z,260
2017-08-13T05:34:59.035Z,285
2017-08-13T05:35:59.023Z,305
2017-08-13T05:36:59.003Z,340
2017-08-13T05:37:58.983Z,360
2017-08-13T05:38:58.957Z,375
2017-08-13T05:39:58.934Z,365
2017-08-13T05:40:58.930Z,355
2017-08-13T05:41:58.608Z,350
2017-08-13T05:42:58.872Z,360
2017-08-13T05:43:58.857Z,390
2017-08-13T05:44:58.840Z,405
2017-08-13T05:45:58.815Z,415
2017-08-13T05:46:58.495Z,405
2017-08-13T05:47:58.771Z,425
2017-08-13T05:48:58.753Z,425
2017-08-13T05:49:58.137Z,410
2017-08-13T05:50:58.708Z,425
2017-08-13T05:51:58.682Z,390
2017-08-13T05:52:58.666Z,375
2017-08-13T05:53:58.648Z,390
2017-08-13T05:54:58.333Z,400
2017-08-13T05:55:58.617Z,385
2017-08-13T05:56:58.591Z,335
2017-08-13T05:57:58.572Z,325
2017-08-13T05:58:58.548Z,310
2017-08-13T05:59:58.523Z,320
2017-08-13T06:00:58.508Z,335
2017-08-13T06:01:58.487Z,380
2017-08-13T06:02:58.470Z,495
2017-08-13T06:03:58.458Z,645
2017-08-13T06:04:58.437Z,745
2017-08-13T06:05:58.408Z,560
2017-08-13T06:06:58.391Z,365
2017-08-13T06:07:58.368Z,370
2017-08-13T06:08:58.346Z,380
2017-08-13T06:09:58.334Z,405
2017-08-13T06:10:58.307Z,430
2017-08-13T06:11:58.295Z,450
2017-08-13T06:12:58.274Z,485
2017-08-13T06:13:57.951Z,785
2017-08-13T06:14:58.239Z,510
2017-08-13T06:15:58.214Z,535
2017-08-13T06:16:58.203Z,830
2017-08-13T06:17:58.175Z,555
2017-08-13T06:18:58.161Z,820
2017-08-13T06:19:58.146Z,630
2017-08-13T06:20:58.124Z,1015
2017-08-13T06:21:58.099Z,560
2017-08-13T06:22:58.080Z,570
2017-08-13T06:23:58.070Z,605
2017-08-13T06:24:58.048Z,610
2017-08-13T06:25:58.025Z,1210
2017-08-13T06:26:58.006Z,1095
2017-08-13T06:27:57.985Z,685
2017-08-13T06:28:57.971Z,615
2017-08-13T06:29:57.946Z,575
2017-08-13T06:30:57.944Z,620
2017-08-13T06:31:57.912Z,580
2017-08-13T06:32:57.899Z,580
2017-08-13T06:33:57.588Z,590
2017-08-13T06:34:57.869Z,595
2017-08-13T06:35:57.865Z,645
2017-08-13T06:36:57.834Z,800
2017-08-13T06:37:57.816Z,1020
2017-08-13T06:38:57.806Z,595
2017-08-13T06:39:57.791Z,685
2017-08-13T06:40:57.768Z,565
2017-08-13T06:41:57.744Z,585
2017-08-13T06:42:57.727Z,560
2017-08-13T06:43:57.712Z,530
2017-08-13T06:44:57.693Z,520
2017-08-13T06:45:57.674Z,755
2017-08-13T06:46:57.659Z,535
2017-08-13T06:47:57.647Z,525
2017-08-13T06:48:57.330Z,525
2017-08-13T06:49:57.601Z,540
2017-08-13T06:50:57.291Z,525
2017-08-13T06:51:57.568Z,530
2017-08-13T06:52:57.559Z,560
2017-08-13T06:53:57.240Z,550
2017-08-13T06:54:57.221Z,530
2017-08-13T06:55:57.213Z,525
2017-08-13T06:56:57.481Z,510
2017-08-13T06:57:57.167Z,515
2017-08-13T06:58:57.153Z,520
2017-08-13T06:59:57.462Z,520
2017-08-13T07:00:57.114Z,510
2017-08-13T07:01:57.417Z,535
2017-08-13T07:02:57.074Z,580
2017-08-13T07:03:57.354Z,575
2017-08-13T07:04:57.336Z,610
2017-08-13T07:05:57.025Z,585
2017-08-13T07:06:57.302Z,765
2017-08-13T07:07:57.285Z,1105
2017-08-13T07:08:56.966Z,1285
2017-08-13T07:09:57.244Z,1350
2017-08-13T07:10:57.299Z,1360
2017-08-13T07:11:57.210Z,1235
2017-08-13T07:12:57.191Z,915
2017-08-13T07:13:57.183Z,430
2017-08-13T07:14:57.151Z,430
2017-08-13T07:15:56.852Z,1380
2017-08-13T07:16:57.121Z,1385
2017-08-13T07:17:57.111Z,705
2017-08-13T07:18:57.089Z,915
2017-08-13T07:19:57.078Z,1185
2017-08-13T07:20:57.053Z,515
2017-08-13T07:21:57.052Z,765
2017-08-13T07:22:57.028Z,1010
2017-08-13T07:23:57.010Z,1195
2017-08-13T07:24:56.991Z,805
2017-08-13T07:25:56.978Z,1255
2017-08-13T07:26:56.961Z,1365
2017-08-13T07:27:56.940Z,1325
2017-08-13T07:28:56.929Z,1310
2017-08-13T07:29:56.911Z,1230
2017-08-13T07:30:56.896Z,1140
2017-08-13T07:31:56.877Z,1080
2017-08-13T07:32:56.865Z,1030
2017-08-13T07:33:56.848Z,1010
2017-08-13T07:34:56.833Z,995
2017-08-13T07:35:56.814Z,980
2017-08-13T07:36:56.807Z,975
2017-08-13T07:37:56.792Z,995
2017-08-13T07:38:56.482Z,880
2017-08-13T07:39:56.756Z,845
2017-08-13T07:40:56.753Z,1070
2017-08-13T07:41:56.440Z,1315
2017-08-13T07:42:56.730Z,1515
2017-08-13T07:43:56.721Z,1675
2017-08-13T07:44:56.705Z,1745
2017-08-13T07:45:56.683Z,1730
2017-08-13T07:46:56.375Z,1845
2017-08-13T07:47:56.662Z,1695
2017-08-13T07:48:56.647Z,1265
2017-08-13T07:49:56.636Z,1015
2017-08-13T07:50:56.625Z,880
2017-08-13T07:51:56.612Z,1295
2017-08-13T07:52:56.601Z,1625
2017-08-13T07:53:56.585Z,970
2017-08-13T07:54:56.270Z,1070
2017-08-13T07:55:56.556Z,1705
2017-08-13T07:56:56.251Z,1755
2017-08-13T07:57:55.935Z,1765
2017-08-13T07:58:56.294Z,1785
2017-08-13T07:59:56.511Z,1745
2017-08-13T08:00:56.201Z,1730
2017-08-13T08:01:56.192Z,1765
2017-08-13T08:02:56.178Z,1725
2017-08-13T08:03:56.163Z,1770
2017-08-13T08:04:56.453Z,1805
2017-08-13T08:05:56.437Z,1835
2017-08-13T08:06:56.421Z,1845
2017-08-13T08:07:56.429Z,1910
2017-08-13T08:08:56.396Z,2050
2017-08-13T08:09:56.392Z,2025
2017-08-13T08:10:55.803Z,2080
2017-08-13T08:11:56.364Z,2120
2017-08-13T08:12:56.354Z,2010
2017-08-13T08:13:56.345Z,1925
2017-08-13T08:14:56.331Z,975
2017-08-13T08:15:56.340Z,790
2017-08-13T08:16:56.314Z,780
2017-08-13T08:17:56.300Z,1045
2017-08-13T08:18:56.287Z,745
2017-08-13T08:19:55.990Z,930
2017-08-13T08:20:55.979Z,575
2017-08-13T08:21:55.964Z,860
2017-08-13T08:22:56.246Z,535
2017-08-13T08:23:56.251Z,470
2017-08-13T08:24:56.229Z,460
2017-08-13T08:25:55.913Z,475
2017-08-13T08:26:55.910Z,505
2017-08-13T08:27:56.187Z,555
2017-08-13T08:28:56.335Z,1595
2017-08-13T08:29:56.158Z,2070
2017-08-13T08:30:56.144Z,2125
2017-08-13T08:31:56.129Z,2095
2017-08-13T08:32:56.125Z,2085
2017-08-13T08:33:56.115Z,2150
2017-08-13T08:34:56.106Z,2120
2017-08-13T08:35:55.782Z,2155
2017-08-13T08:36:56.075Z,2190
2017-08-13T08:37:56.053Z,2150
2017-08-13T08:38:55.742Z,2195
2017-08-13T08:39:55.743Z,2285
2017-08-13T08:40:55.727Z,2265
2017-08-13T08:41:55.712Z,2205
2017-08-13T08:42:55.999Z,2220
2017-08-13T08:43:55.982Z,2235
2017-08-13T08:44:55.971Z,2240
2017-08-13T08:45:55.958Z,2310
2017-08-13T08:46:55.947Z,2375
2017-08-13T08:47:55.945Z,2365
2017-08-13T08:48:55.931Z,2370
2017-08-13T08:49:55.624Z,2360
2017-08-13T08:50:55.911Z,2405
2017-08-13T08:51:55.902Z,2400
2017-08-13T08:52:55.597Z,2510
2017-08-13T08:53:55.290Z,2430
2017-08-13T08:54:55.574Z,2455
2017-08-13T08:55:55.860Z,2440
2017-08-13T08:56:55.857Z,935
2017-08-13T08:57:55.553Z,1370
2017-08-13T08:58:55.840Z,680
2017-08-13T08:59:55.829Z,655
2017-08-13T09:00:55.516Z,645
2017-08-13T09:01:55.422Z,640
2017-08-13T09:02:55.797Z,640
2017-08-13T09:03:55.783Z,620
2017-08-13T09:04:55.771Z,565
2017-08-13T09:05:55.768Z,520
2017-08-13T09:06:55.760Z,495
2017-08-13T09:07:55.750Z,480
2017-08-13T09:08:55.733Z,485
2017-08-13T09:09:55.718Z,510
2017-08-13T09:10:55.713Z,550
2017-08-13T09:11:55.687Z,590
2017-08-13T09:12:55.676Z,610
2017-08-13T09:13:55.675Z,630
2017-08-13T09:14:55.353Z,655
2017-08-13T09:15:55.351Z,670
2017-08-13T09:16:55.631Z,700
2017-08-13T09:17:55.313Z,760
2017-08-13T09:18:55.590Z,2195
2017-08-13T09:19:55.578Z,2105
2017-08-13T09:20:55.563Z,2110
2017-08-13T09:21:55.554Z,2315
2017-08-13T09:22:55.541Z,2425
2017-08-13T09:23:55.520Z,2480
2017-08-13T09:24:55.520Z,2455
2017-08-13T09:25:55.496Z,2470
2017-08-13T09:26:55.483Z,2415
2017-08-13T09:27:54.879Z,2380
2017-08-13T09:28:55.459Z,2315
2017-08-13T09:29:55.445Z,2345
2017-08-13T09:30:55.430Z,2440
2017-08-13T09:31:55.130Z,2515
2017-08-13T09:32:55.112Z,2420
2017-08-13T09:33:55.413Z,2335
2017-08-13T09:34:55.399Z,2265
2017-08-13T09:35:54.790Z,2360
2017-08-13T09:36:54.787Z,2355
2017-08-13T09:37:55.074Z,2470
2017-08-13T09:38:55.360Z,2475
2017-08-13T09:39:55.353Z,2480
2017-08-13T09:40:55.334Z,2560
2017-08-13T09:41:55.334Z,2595
2017-08-13T09:42:55.324Z,2690
2017-08-13T09:43:55.024Z,2705
2017-08-13T09:44:55.303Z,2835
2017-08-13T09:45:55.295Z,2960
2017-08-13T09:46:55.290Z,2960
2017-08-13T09:47:54.986Z,2975
2017-08-13T09:48:55.275Z,2875
2017-08-13T09:49:55.279Z,1775
2017-08-13T09:50:55.268Z,1450
2017-08-13T09:51:54.964Z,1235
2017-08-13T09:52:54.953Z,1145
2017-08-13T09:53:55.254Z,1095
2017-08-13T09:54:55.237Z,1065
2017-08-13T09:55:55.224Z,1085
2017-08-13T09:56:54.937Z,1090
2017-08-13T09:57:55.214Z,2685
2017-08-13T09:58:55.202Z,1410
2017-08-13T09:59:55.190Z,2885
2017-08-13T10:00:55.187Z,2835
2017-08-13T10:01:55.173Z,2860
2017-08-13T10:02:54.869Z,2295
2017-08-13T10:03:54.868Z,2815
2017-08-13T10:04:55.145Z,2660
2017-08-13T10:05:55.126Z,940
2017-08-13T10:06:55.121Z,755
2017-08-13T10:07:55.117Z,640
2017-08-13T10:08:55.103Z,565
2017-08-13T10:09:55.092Z,515
2017-08-13T10:10:55.089Z,490
2017-08-13T10:11:55.073Z,470
2017-08-13T10:12:55.064Z,470
2017-08-13T10:13:55.474Z,490
2017-08-13T10:14:55.035Z,515
2017-08-13T10:15:55.023Z,565
2017-08-13T10:16:54.711Z,630
2017-08-13T10:17:55.002Z,695
2017-08-13T10:18:55.062Z,770
2017-08-13T10:19:54.972Z,835
2017-08-13T10:20:54.960Z,875
2017-08-13T10:21:55.079Z,910
2017-08-13T10:22:54.930Z,915
2017-08-13T10:23:55.046Z,955
2017-08-13T10:24:55.036Z,975
2017-08-13T10:25:54.887Z,920
2017-08-13T10:26:54.885Z,935
2017-08-13T10:27:54.868Z,935
2017-08-13T10:28:54.845Z,945
2017-08-13T10:29:54.977Z,950
2017-08-13T10:30:54.898Z,960
2017-08-13T10:31:54.810Z,960
2017-08-13T10:32:54.500Z,950
2017-08-13T10:33:54.910Z,925
2017-08-13T10:34:54.783Z,910
2017-08-13T10:35:54.802Z,895
2017-08-13T10:36:54.736Z,885
2017-08-13T10:37:54.725Z,860
2017-08-13T10:38:54.707Z,825
2017-08-13T10:39:54.528Z,770
2017-08-13T10:40:54.383Z,715
2017-08-13T10:41:54.666Z,665
2017-08-13T10:42:54.364Z,620
2017-08-13T10:43:55.679Z,590
2017-08-13T10:44:54.807Z,600
2017-08-13T10:45:54.309Z,635
2017-08-13T10:46:54.300Z,700
2017-08-13T10:47:54.576Z,710
2017-08-13T10:48:54.275Z,695
2017-08-13T10:49:54.248Z,680
2017-08-13T10:50:54.230Z,665
2017-08-13T10:51:54.514Z,665
2017-08-13T10:52:54.205Z,655
2017-08-13T10:53:54.488Z,645
2017-08-13T10:54:53.580Z,650
2017-08-13T10:55:54.169Z,650
2017-08-13T10:56:53.854Z,650
2017-08-13T10:57:54.436Z,650
2017-08-13T10:58:54.421Z,650
2017-08-13T10:59:54.107Z,645
2017-08-13T11:00:54.440Z,645
2017-08-13T11:01:54.362Z,650
2017-08-13T11:02:54.342Z,650
2017-08-13T11:03:53.732Z,655
2017-08-13T11:04:54.307Z,665
2017-08-13T11:05:54.292Z,680
2017-08-13T11:06:53.983Z,690
2017-08-13T11:07:54.262Z,705
2017-08-13T11:08:54.249Z,720
2017-08-13T11:09:54.231Z,740
2017-08-13T11:10:54.219Z,765
2017-08-13T11:11:54.199Z,780
2017-08-13T11:12:54.044Z,775
2017-08-13T11:13:54.165Z,770
2017-08-13T11:14:53.558Z,785
2017-08-13T11:15:54.426Z,860
2017-08-13T11:16:54.114Z,930
2017-08-13T11:17:54.097Z,1025
2017-08-13T11:18:54.085Z,985
2017-08-13T11:19:54.066Z,940
2017-08-13T11:20:53.759Z,850
2017-08-13T11:21:53.755Z,830
2017-08-13T11:22:53.733Z,810
2017-08-13T11:23:54.006Z,780
2017-08-13T11:24:53.988Z,760
2017-08-13T11:25:53.969Z,750
2017-08-13T11:26:53.666Z,755
2017-08-13T11:27:53.353Z,765
2017-08-13T11:28:53.930Z,805
2017-08-13T11:29:53.919Z,890
2017-08-13T11:30:53.901Z,1025
2017-08-13T11:31:53.882Z,1180
2017-08-13T11:32:53.874Z,1275
2017-08-13T11:33:53.859Z,1340
2017-08-13T11:34:53.844Z,1400
2017-08-13T11:35:53.826Z,1425
2017-08-13T11:36:55.031Z,1405
2017-08-13T11:37:56.222Z,1350
2017-08-13T11:38:56.096Z,1320
2017-08-13T11:39:53.771Z,1310
2017-08-13T11:40:53.774Z,1310
2017-08-13T11:41:53.735Z,1305
2017-08-13T11:42:53.726Z,1270
2017-08-13T11:43:53.713Z,1145
2017-08-13T11:44:53.694Z,980
2017-08-13T11:45:53.676Z,765
2017-08-13T11:46:53.672Z,585
2017-08-13T11:47:53.648Z,480
2017-08-13T11:48:53.637Z,440
2017-08-13T11:49:53.628Z,415
2017-08-13T11:50:53.608Z,400
2017-08-13T11:51:53.598Z,390
2017-08-13T11:52:53.588Z,390
2017-08-13T11:53:53.567Z,390
2017-08-13T11:54:53.552Z,405
2017-08-13T11:55:53.563Z,420
2017-08-13T11:56:53.524Z,440
2017-08-13T11:57:53.506Z,475
2017-08-13T11:58:53.199Z,520
2017-08-13T11:59:53.486Z,555
2017-08-13T12:00:53.472Z,590
2017-08-13T12:01:53.451Z,635
2017-08-13T12:02:53.436Z,695
2017-08-13T12:03:53.425Z,755
2017-08-13T12:04:53.401Z,810
2017-08-13T12:05:53.391Z,875
2017-08-13T12:06:53.375Z,920
2017-08-13T12:07:53.058Z,975
2017-08-13T12:08:53.349Z,1030
2017-08-13T12:09:53.029Z,1075
2017-08-13T12:10:53.305Z,1110
2017-08-13T12:11:52.999Z,1150
2017-08-13T12:12:53.284Z,1185
2017-08-13T12:13:53.262Z,1235
2017-08-13T12:14:53.003Z,1295
2017-08-13T12:15:53.244Z,1365
2017-08-13T12:16:53.221Z,1405
2017-08-13T12:17:52.911Z,1480
2017-08-13T12:18:53.192Z,1525
2017-08-13T12:19:53.181Z,1545
2017-08-13T12:20:53.162Z,1545
2017-08-13T12:21:52.865Z,1545
2017-08-13T12:22:52.854Z,1510
2017-08-13T12:23:53.125Z,1520
2017-08-13T12:24:53.120Z,1495
2017-08-13T12:25:53.101Z,1465
2017-08-13T12:26:53.083Z,1420
2017-08-13T12:27:52.778Z,1350
2017-08-13T12:28:53.058Z,1320
2017-08-13T12:29:52.747Z,1290
2017-08-13T12:30:53.042Z,1220
2017-08-13T12:31:53.026Z,1270
2017-08-13T12:32:53.003Z,1385
2017-08-13T12:33:52.994Z,1410
2017-08-13T12:34:52.690Z,1435
2017-08-13T12:35:52.673Z,1470
2017-08-13T12:36:52.955Z,1430
2017-08-13T12:37:52.954Z,1370
2017-08-13T12:38:52.928Z,1355
2017-08-13T12:39:52.917Z,1340
2017-08-13T12:40:52.614Z,1300
2017-08-13T12:41:52.616Z,1250
2017-08-13T12:42:52.879Z,1200
2017-08-13T12:43:52.868Z,1165
2017-08-13T12:44:52.854Z,1165
2017-08-13T12:45:52.846Z,1180
2017-08-13T12:46:52.829Z,1230
2017-08-13T12:47:52.228Z,1315
2017-08-13T12:48:52.803Z,1265
2017-08-13T12:49:52.796Z,1230
2017-08-13T12:50:52.808Z,1175
2017-08-13T12:51:52.767Z,1160
2017-08-13T12:52:52.455Z,1185
2017-08-13T12:53:52.751Z,1265
2017-08-13T12:54:52.735Z,1200
2017-08-13T12:55:52.724Z,1185
2017-08-13T12:56:52.736Z,1170
2017-08-13T12:57:52.102Z,1150
2017-08-13T12:58:52.088Z,1195
2017-08-13T12:59:52.670Z,1165
2017-08-13T13:00:52.541Z,1170
2017-08-13T13:01:52.534Z,1155
2017-08-13T13:02:53.808Z,1190
2017-08-13T13:03:52.618Z,1240
2017-08-13T13:04:52.599Z,1320
2017-08-13T13:05:52.591Z,1345
2017-08-13T13:06:52.571Z,1355
2017-08-13T13:07:52.268Z,1350
2017-08-13T13:08:52.252Z,1330
2017-08-13T13:09:52.240Z,1345
2017-08-13T13:10:52.227Z,1370
2017-08-13T13:11:52.214Z,1420
2017-08-13T13:12:52.207Z,1450
2017-08-13T13:13:52.187Z,1445
2017-08-13T13:14:52.194Z,1435
2017-08-13T13:15:52.185Z,1435
2017-08-13T13:16:52.155Z,1425
2017-08-13T13:17:52.144Z,1420
2017-08-13T13:18:52.157Z,1410
2017-08-13T13:19:52.127Z,1395
2017-08-13T13:20:52.107Z,1355
2017-08-13T13:21:52.095Z,1340
2017-08-13T13:22:52.080Z,1345
2017-08-13T13:23:52.063Z,1340
2017-08-13T13:24:52.062Z,1340
2017-08-13T13:25:52.053Z,1350
2017-08-13T13:26:52.345Z,1360
2017-08-13T13:27:52.323Z,1315
2017-08-13T13:28:52.315Z,1265
2017-08-13T13:29:51.702Z,1250
2017-08-13T13:30:52.293Z,1260
2017-08-13T13:31:52.278Z,1285
2017-08-13T13:32:52.271Z,1290
2017-08-13T13:33:52.271Z,1310
2017-08-13T13:34:52.238Z,1300
2017-08-13T13:35:51.944Z,1300
2017-08-13T13:36:51.629Z,1290
2017-08-13T13:37:52.211Z,1290
2017-08-13T13:38:51.902Z,1310
2017-08-13T13:39:52.197Z,1345
2017-08-13T13:40:51.888Z,1350
2017-08-13T13:41:52.161Z,1350
2017-08-13T13:42:51.856Z,1290
2017-08-13T13:43:51.850Z,1250
2017-08-13T13:44:52.136Z,1210
2017-08-13T13:45:52.117Z,1205
2017-08-13T13:46:52.111Z,1175
2017-08-13T13:47:52.096Z,1185
2017-08-13T13:48:51.492Z,1190
2017-08-13T13:49:52.069Z,1200
2017-08-13T13:50:51.172Z,1165
2017-08-13T13:51:51.459Z,1140
2017-08-13T13:52:51.744Z,1115
2017-08-13T13:53:51.724Z,1060
2017-08-13T13:54:52.011Z,1030